Auburn, Nebraska
Current Conditions -  °F | °C
As of 11:15 AM on Sunday 21 Dec 2014 (Local Time) from KAFK Reporting Station
Haze Haze  
Wind Chill: 32°   Ceiling: 800
Heat Index: 41°   Visibility: 5mi
Dew Point: 40°   Wind: 17mph
Humidity: 98%   Direction: 200°SSW
Pressure: 29.87"   Gusts: 28mph
Location:  40.39°N, 95.84°W
Report Text: KAFK 211715Z AUTO 20015G24KT 5SM BR OVC008 05/05 A2987 RMK AO2 T00480045
Loading
Personal Weather Stations






























Interactive Weather Map New forecast layout! Learn more

10-Day Weather Forecast

Advertisements
Track Severe Weather on mobile